sensor_id;sensor_type;location;lat;lon;timestamp;P1;durP1;ratioP1;P2;durP2;ratioP2
76617;SDS011;65509;42.816;74.648;2022-12-11T00:00:19;33.97;;;11.65;;
76617;SDS011;65509;42.816;74.648;2022-12-11T00:02:45;35.47;;;10.75;;
76617;SDS011;65509;42.816;74.648;2022-12-11T00:05:10;32.00;;;11.05;;
76617;SDS011;65509;42.816;74.648;2022-12-11T00:07:36;30.90;;;10.65;;
76617;SDS011;65509;42.816;74.648;2022-12-11T00:10:02;29.73;;;9.75;;
76617;SDS011;65509;42.816;74.648;2022-12-11T00:12:28;35.33;;;9.57;;
76617;SDS011;65509;42.816;74.648;2022-12-11T00:14:54;42.05;;;11.60;;
76617;SDS011;65509;42.816;74.648;2022-12-11T00:17:19;41.33;;;15.73;;
76617;SDS011;65509;42.816;74.648;2022-12-11T00:19:45;41.65;;;13.60;;
76617;SDS011;65509;42.816;74.648;2022-12-11T00:22:10;41.78;;;13.10;;
76617;SDS011;65509;42.816;74.648;2022-12-11T00:24:36;38.50;;;12.45;;
76617;SDS011;65509;42.816;74.648;2022-12-11T00:27:01;43.10;;;13.85;;
76617;SDS011;65509;42.816;74.648;2022-12-11T00:29:27;50.10;;;15.82;;
76617;SDS011;65509;42.816;74.648;2022-12-11T00:31:52;68.38;;;22.10;;
76617;SDS011;65509;42.816;74.648;2022-12-11T00:34:17;61.22;;;20.00;;
76617;SDS011;65509;42.816;74.648;2022-12-11T00:36:43;46.90;;;16.17;;
76617;SDS011;65509;42.816;74.648;2022-12-11T00:39:10;44.85;;;14.02;;
76617;SDS011;65509;42.816;74.648;2022-12-11T00:41:35;39.70;;;14.23;;
76617;SDS011;65509;42.816;74.648;2022-12-11T00:44:01;38.78;;;13.35;;
76617;SDS011;65509;42.816;74.648;2022-12-11T00:46:27;39.67;;;13.95;;
76617;SDS011;65509;42.816;74.648;2022-12-11T00:48:52;50.42;;;15.80;;
76617;SDS011;65509;42.816;74.648;2022-12-11T00:51:18;37.92;;;12.82;;
76617;SDS011;65509;42.816;74.648;2022-12-11T00:53:43;46.10;;;16.63;;
76617;SDS011;65509;42.816;74.648;2022-12-11T00:56:10;48.00;;;15.20;;
76617;SDS011;65509;42.816;74.648;2022-12-11T00:58:36;38.72;;;15.05;;
76617;SDS011;65509;42.816;74.648;2022-12-11T01:01:05;53.40;;;15.63;;
76617;SDS011;65509;42.816;74.648;2022-12-11T01:03:31;48.08;;;13.70;;
76617;SDS011;65509;42.816;74.648;2022-12-11T01:05:57;47.85;;;17.45;;
76617;SDS011;65509;42.816;74.648;2022-12-11T01:08:22;47.35;;;15.57;;
76617;SDS011;65509;42.816;74.648;2022-12-11T01:10:47;69.82;;;19.35;;
76617;SDS011;65509;42.816;74.648;2022-12-11T01:13:13;55.63;;;17.90;;
76617;SDS011;65509;42.816;74.648;2022-12-11T01:15:40;55.33;;;18.67;;
76617;SDS011;65509;42.816;74.648;2022-12-11T01:18:06;54.95;;;16.48;;
76617;SDS011;65509;42.816;74.648;2022-12-11T01:20:31;50.20;;;16.73;;
76617;SDS011;65509;42.816;74.648;2022-12-11T01:22:57;58.97;;;17.95;;
76617;SDS011;65509;42.816;74.648;2022-12-11T01:25:24;73.03;;;23.40;;
76617;SDS011;65509;42.816;74.648;2022-12-11T01:27:50;94.88;;;24.85;;
76617;SDS011;65509;42.816;74.648;2022-12-11T01:30:16;79.38;;;22.90;;
76617;SDS011;65509;42.816;74.648;2022-12-11T01:32:42;94.05;;;27.92;;
76617;SDS011;65509;42.816;74.648;2022-12-11T01:35:07;146.63;;;46.55;;
76617;SDS011;65509;42.816;74.648;2022-12-11T01:37:33;105.75;;;32.72;;
76617;SDS011;65509;42.816;74.648;2022-12-11T01:39:59;76.03;;;24.65;;
76617;SDS011;65509;42.816;74.648;2022-12-11T01:42:24;75.72;;;23.45;;
76617;SDS011;65509;42.816;74.648;2022-12-11T01:47:15;46.15;;;14.93;;
76617;SDS011;65509;42.816;74.648;2022-12-11T01:49:41;48.95;;;15.77;;
76617;SDS011;65509;42.816;74.648;2022-12-11T01:52:11;45.45;;;16.40;;
76617;SDS011;65509;42.816;74.648;2022-12-11T01:54:39;56.25;;;16.23;;
76617;SDS011;65509;42.816;74.648;2022-12-11T01:57:05;47.20;;;15.35;;
76617;SDS011;65509;42.816;74.648;2022-12-11T01:59:32;38.22;;;14.77;;
76617;SDS011;65509;42.816;74.648;2022-12-11T02:02:00;59.65;;;19.40;;
76617;SDS011;65509;42.816;74.648;2022-12-11T02:04:27;47.45;;;19.38;;
76617;SDS011;65509;42.816;74.648;2022-12-11T02:06:53;53.13;;;17.70;;
76617;SDS011;65509;42.816;74.648;2022-12-11T02:09:25;64.57;;;23.30;;
76617;SDS011;65509;42.816;74.648;2022-12-11T02:11:56;95.40;;;33.25;;
76617;SDS011;65509;42.816;74.648;2022-12-11T02:17:04;66.18;;;22.60;;
76617;SDS011;65509;42.816;74.648;2022-12-11T02:19:40;86.00;;;29.40;;
76617;SDS011;65509;42.816;74.648;2022-12-11T02:22:10;98.38;;;33.08;;
76617;SDS011;65509;42.816;74.648;2022-12-11T02:29:39;80.80;;;26.15;;
76617;SDS011;65509;42.816;74.648;2022-12-11T02:32:09;80.43;;;26.92;;
76617;SDS011;65509;42.816;74.648;2022-12-11T02:34:39;85.57;;;29.98;;
76617;SDS011;65509;42.816;74.648;2022-12-11T02:37:10;84.82;;;30.23;;
76617;SDS011;65509;42.816;74.648;2022-12-11T02:39:37;108.55;;;38.42;;
76617;SDS011;65509;42.816;74.648;2022-12-11T02:42:04;137.93;;;44.20;;
76617;SDS011;65509;42.816;74.648;2022-12-11T02:44:31;114.22;;;38.33;;
76617;SDS011;65509;42.816;74.648;2022-12-11T02:46:57;158.10;;;52.60;;
76617;SDS011;65509;42.816;74.648;2022-12-11T02:49:23;162.70;;;56.75;;
76617;SDS011;65509;42.816;74.648;2022-12-11T02:51:50;158.50;;;55.80;;
76617;SDS011;65509;42.816;74.648;2022-12-11T02:54:18;215.05;;;74.30;;
76617;SDS011;65509;42.816;74.648;2022-12-11T02:56:52;300.33;;;101.07;;
76617;SDS011;65509;42.816;74.648;2022-12-11T02:59:22;242.43;;;84.95;;
76617;SDS011;65509;42.816;74.648;2022-12-11T03:01:50;178.18;;;65.93;;
76617;SDS011;65509;42.816;74.648;2022-12-11T03:04:15;140.82;;;49.20;;
76617;SDS011;65509;42.816;74.648;2022-12-11T03:06:42;126.45;;;43.00;;
76617;SDS011;65509;42.816;74.648;2022-12-11T03:09:10;121.10;;;44.13;;
76617;SDS011;65509;42.816;74.648;2022-12-11T03:11:36;121.45;;;47.25;;
76617;SDS011;65509;42.816;74.648;2022-12-11T03:14:02;121.57;;;42.72;;
76617;SDS011;65509;42.816;74.648;2022-12-11T03:16:29;85.70;;;30.40;;
76617;SDS011;65509;42.816;74.648;2022-12-11T03:21:34;105.95;;;31.02;;
76617;SDS011;65509;42.816;74.648;2022-12-11T03:24:14;74.50;;;27.02;;
76617;SDS011;65509;42.816;74.648;2022-12-11T03:26:43;82.72;;;28.45;;
76617;SDS011;65509;42.816;74.648;2022-12-11T03:29:16;74.60;;;28.23;;
76617;SDS011;65509;42.816;74.648;2022-12-11T03:32:17;75.40;;;27.42;;
76617;SDS011;65509;42.816;74.648;2022-12-11T03:37:04;149.75;;;46.00;;
76617;SDS011;65509;42.816;74.648;2022-12-11T03:39:30;110.50;;;40.88;;
76617;SDS011;65509;42.816;74.648;2022-12-11T03:41:58;106.30;;;38.55;;
76617;SDS011;65509;42.816;74.648;2022-12-11T03:44:26;107.50;;;39.10;;
76617;SDS011;65509;42.816;74.648;2022-12-11T03:46:53;136.63;;;49.85;;
76617;SDS011;65509;42.816;74.648;2022-12-11T03:49:21;153.95;;;51.17;;
76617;SDS011;65509;42.816;74.648;2022-12-11T03:51:48;218.00;;;65.72;;
76617;SDS011;65509;42.816;74.648;2022-12-11T03:54:15;266.80;;;78.50;;
76617;SDS011;65509;42.816;74.648;2022-12-11T03:56:41;242.65;;;66.07;;
76617;SDS011;65509;42.816;74.648;2022-12-11T03:59:09;120.03;;;38.17;;
76617;SDS011;65509;42.816;74.648;2022-12-11T04:01:35;86.47;;;30.67;;
76617;SDS011;65509;42.816;74.648;2022-12-11T04:04:00;85.80;;;31.58;;
76617;SDS011;65509;42.816;74.648;2022-12-11T04:06:26;77.53;;;30.17;;
76617;SDS011;65509;42.816;74.648;2022-12-11T04:08:51;91.22;;;32.78;;
76617;SDS011;65509;42.816;74.648;2022-12-11T04:11:17;99.30;;;34.88;;
76617;SDS011;65509;42.816;74.648;2022-12-11T04:14:01;77.30;;;30.50;;
76617;SDS011;65509;42.816;74.648;2022-12-11T04:16:45;58.50;;;23.50;;
76617;SDS011;65509;42.816;74.648;2022-12-11T04:19:10;58.50;;;22.50;;
76617;SDS011;65509;42.816;74.648;2022-12-11T04:21:54;47.97;;;18.10;;
76617;SDS011;65509;42.816;74.648;2022-12-11T04:24:38;48.33;;;18.65;;
76617;SDS011;65509;42.816;74.648;2022-12-11T04:27:04;45.55;;;16.98;;
76617;SDS011;65509;42.816;74.648;2022-12-11T04:29:29;46.42;;;17.90;;
76617;SDS011;65509;42.816;74.648;2022-12-11T04:31:55;45.35;;;17.52;;
76617;SDS011;65509;42.816;74.648;2022-12-11T04:34:20;88.55;;;27.95;;
76617;SDS011;65509;42.816;74.648;2022-12-11T04:36:46;87.03;;;29.15;;
76617;SDS011;65509;42.816;74.648;2022-12-11T04:39:11;84.13;;;29.50;;
76617;SDS011;65509;42.816;74.648;2022-12-11T04:41:37;92.60;;;28.75;;
76617;SDS011;65509;42.816;74.648;2022-12-11T04:44:03;120.15;;;33.00;;
76617;SDS011;65509;42.816;74.648;2022-12-11T04:46:29;121.03;;;31.98;;
76617;SDS011;65509;42.816;74.648;2022-12-11T04:48:54;78.35;;;24.67;;
76617;SDS011;65509;42.816;74.648;2022-12-11T04:51:20;80.35;;;26.95;;
76617;SDS011;65509;42.816;74.648;2022-12-11T04:53:46;84.70;;;26.73;;
76617;SDS011;65509;42.816;74.648;2022-12-11T04:56:13;80.18;;;26.85;;
76617;SDS011;65509;42.816;74.648;2022-12-11T04:58:39;55.75;;;21.48;;
76617;SDS011;65509;42.816;74.648;2022-12-11T05:01:15;59.13;;;19.25;;
76617;SDS011;65509;42.816;74.648;2022-12-11T05:03:41;46.28;;;17.45;;
76617;SDS011;65509;42.816;74.648;2022-12-11T05:06:07;49.13;;;19.25;;
76617;SDS011;65509;42.816;74.648;2022-12-11T05:08:33;51.78;;;21.25;;
76617;SDS011;65509;42.816;74.648;2022-12-11T05:11:00;54.53;;;21.55;;
76617;SDS011;65509;42.816;74.648;2022-12-11T05:13:26;47.75;;;20.10;;
76617;SDS011;65509;42.816;74.648;2022-12-11T05:15:52;48.63;;;19.83;;
76617;SDS011;65509;42.816;74.648;2022-12-11T05:18:17;58.50;;;21.92;;
76617;SDS011;65509;42.816;74.648;2022-12-11T05:20:44;49.05;;;20.50;;
76617;SDS011;65509;42.816;74.648;2022-12-11T05:23:10;53.88;;;21.45;;
76617;SDS011;65509;42.816;74.648;2022-12-11T05:25:35;55.33;;;23.08;;
76617;SDS011;65509;42.816;74.648;2022-12-11T05:28:01;69.57;;;26.70;;
76617;SDS011;65509;42.816;74.648;2022-12-11T05:30:26;71.18;;;29.92;;
76617;SDS011;65509;42.816;74.648;2022-12-11T05:32:54;101.22;;;38.22;;
76617;SDS011;65509;42.816;74.648;2022-12-11T05:35:20;103.22;;;42.90;;
76617;SDS011;65509;42.816;74.648;2022-12-11T05:37:45;99.95;;;41.10;;
76617;SDS011;65509;42.816;74.648;2022-12-11T05:40:11;115.82;;;42.17;;
76617;SDS011;65509;42.816;74.648;2022-12-11T05:42:36;106.95;;;45.00;;
76617;SDS011;65509;42.816;74.648;2022-12-11T05:45:02;106.70;;;43.63;;
76617;SDS011;65509;42.816;74.648;2022-12-11T05:47:29;111.93;;;46.10;;
76617;SDS011;65509;42.816;74.648;2022-12-11T05:49:55;95.47;;;41.65;;
76617;SDS011;65509;42.816;74.648;2022-12-11T05:52:20;124.68;;;50.55;;
76617;SDS011;65509;42.816;74.648;2022-12-11T05:54:47;111.72;;;46.22;;
76617;SDS011;65509;42.816;74.648;2022-12-11T05:57:14;128.00;;;52.13;;
76617;SDS011;65509;42.816;74.648;2022-12-11T05:59:41;126.93;;;51.42;;
76617;SDS011;65509;42.816;74.648;2022-12-11T06:02:08;121.10;;;45.47;;
76617;SDS011;65509;42.816;74.648;2022-12-11T06:04:34;114.43;;;46.50;;
76617;SDS011;65509;42.816;74.648;2022-12-11T06:06:59;116.32;;;46.85;;
76617;SDS011;65509;42.816;74.648;2022-12-11T06:09:26;118.72;;;46.75;;
76617;SDS011;65509;42.816;74.648;2022-12-11T06:11:52;101.68;;;44.17;;
76617;SDS011;65509;42.816;74.648;2022-12-11T06:14:17;107.15;;;44.97;;
76617;SDS011;65509;42.816;74.648;2022-12-11T06:16:43;113.40;;;47.30;;
76617;SDS011;65509;42.816;74.648;2022-12-11T06:19:14;118.72;;;48.03;;
76617;SDS011;65509;42.816;74.648;2022-12-11T06:21:42;124.18;;;50.35;;
76617;SDS011;65509;42.816;74.648;2022-12-11T06:24:09;144.02;;;59.10;;
76617;SDS011;65509;42.816;74.648;2022-12-11T06:26:34;140.55;;;56.15;;
76617;SDS011;65509;42.816;74.648;2022-12-11T06:29:00;186.98;;;70.25;;
76617;SDS011;65509;42.816;74.648;2022-12-11T06:31:25;211.52;;;84.85;;
76617;SDS011;65509;42.816;74.648;2022-12-11T06:33:51;278.15;;;120.55;;
76617;SDS011;65509;42.816;74.648;2022-12-11T06:36:17;333.67;;;137.65;;
76617;SDS011;65509;42.816;74.648;2022-12-11T06:38:43;360.85;;;151.23;;
76617;SDS011;65509;42.816;74.648;2022-12-11T06:41:12;419.63;;;185.82;;
76617;SDS011;65509;42.816;74.648;2022-12-11T06:43:38;467.77;;;213.43;;
76617;SDS011;65509;42.816;74.648;2022-12-11T06:46:05;480.77;;;227.93;;
76617;SDS011;65509;42.816;74.648;2022-12-11T06:48:30;495.23;;;239.93;;
76617;SDS011;65509;42.816;74.648;2022-12-11T06:50:56;501.00;;;250.60;;
76617;SDS011;65509;42.816;74.648;2022-12-11T06:53:22;553.20;;;276.67;;
76617;SDS011;65509;42.816;74.648;2022-12-11T06:55:50;563.38;;;283.50;;
76617;SDS011;65509;42.816;74.648;2022-12-11T06:58:15;586.97;;;303.58;;
76617;SDS011;65509;42.816;74.648;2022-12-11T07:00:44;615.70;;;320.98;;
76617;SDS011;65509;42.816;74.648;2022-12-11T07:03:09;613.40;;;316.00;;
76617;SDS011;65509;42.816;74.648;2022-12-11T07:05:41;612.58;;;320.65;;
76617;SDS011;65509;42.816;74.648;2022-12-11T07:08:06;603.45;;;304.90;;
76617;SDS011;65509;42.816;74.648;2022-12-11T07:10:32;606.88;;;312.40;;
76617;SDS011;65509;42.816;74.648;2022-12-11T07:12:57;580.13;;;303.67;;
76617;SDS011;65509;42.816;74.648;2022-12-11T07:15:23;588.80;;;305.48;;
76617;SDS011;65509;42.816;74.648;2022-12-11T07:17:48;592.08;;;305.50;;
76617;SDS011;65509;42.816;74.648;2022-12-11T07:20:14;583.28;;;298.42;;
76617;SDS011;65509;42.816;74.648;2022-12-11T07:22:39;561.83;;;288.83;;
76617;SDS011;65509;42.816;74.648;2022-12-11T07:25:05;594.17;;;301.23;;
76617;SDS011;65509;42.816;74.648;2022-12-11T07:27:30;570.45;;;285.02;;
76617;SDS011;65509;42.816;74.648;2022-12-11T07:29:56;562.78;;;280.77;;
76617;SDS011;65509;42.816;74.648;2022-12-11T07:32:21;571.22;;;287.13;;
76617;SDS011;65509;42.816;74.648;2022-12-11T07:38:05;554.58;;;269.50;;
76617;SDS011;65509;42.816;74.648;2022-12-11T07:40:31;586.13;;;289.45;;
76617;SDS011;65509;42.816;74.648;2022-12-11T07:42:57;595.17;;;298.98;;
76617;SDS011;65509;42.816;74.648;2022-12-11T07:45:22;574.10;;;293.35;;
76617;SDS011;65509;42.816;74.648;2022-12-11T07:47:50;617.38;;;315.75;;
76617;SDS011;65509;42.816;74.648;2022-12-11T07:50:16;599.35;;;304.48;;
76617;SDS011;65509;42.816;74.648;2022-12-11T07:52:45;607.55;;;310.02;;
76617;SDS011;65509;42.816;74.648;2022-12-11T07:55:12;595.20;;;312.23;;
76617;SDS011;65509;42.816;74.648;2022-12-11T07:57:38;583.50;;;294.15;;
76617;SDS011;65509;42.816;74.648;2022-12-11T08:00:04;558.70;;;283.67;;
76617;SDS011;65509;42.816;74.648;2022-12-11T08:02:30;558.45;;;281.23;;
76617;SDS011;65509;42.816;74.648;2022-12-11T08:04:55;566.28;;;283.67;;
76617;SDS011;65509;42.816;74.648;2022-12-11T08:07:21;566.05;;;276.88;;
76617;SDS011;65509;42.816;74.648;2022-12-11T08:09:46;569.35;;;282.83;;
76617;SDS011;65509;42.816;74.648;2022-12-11T08:12:12;552.65;;;275.67;;
76617;SDS011;65509;42.816;74.648;2022-12-11T08:14:38;522.67;;;250.77;;
76617;SDS011;65509;42.816;74.648;2022-12-11T08:17:03;505.90;;;242.82;;
76617;SDS011;65509;42.816;74.648;2022-12-11T08:19:29;521.40;;;251.95;;
76617;SDS011;65509;42.816;74.648;2022-12-11T08:21:54;480.60;;;224.70;;
76617;SDS011;65509;42.816;74.648;2022-12-11T08:24:19;508.92;;;237.30;;
76617;SDS011;65509;42.816;74.648;2022-12-11T08:26:46;509.73;;;242.80;;
76617;SDS011;65509;42.816;74.648;2022-12-11T08:29:11;494.67;;;236.55;;
76617;SDS011;65509;42.816;74.648;2022-12-11T08:31:38;489.42;;;229.32;;
76617;SDS011;65509;42.816;74.648;2022-12-11T08:34:03;521.08;;;251.38;;
76617;SDS011;65509;42.816;74.648;2022-12-11T08:36:29;508.60;;;245.00;;
76617;SDS011;65509;42.816;74.648;2022-12-11T08:38:54;516.20;;;255.00;;
76617;SDS011;65509;42.816;74.648;2022-12-11T08:41:21;544.45;;;265.90;;
76617;SDS011;65509;42.816;74.648;2022-12-11T08:43:47;538.80;;;265.02;;
76617;SDS011;65509;42.816;74.648;2022-12-11T08:46:13;559.88;;;268.20;;
76617;SDS011;65509;42.816;74.648;2022-12-11T08:48:40;561.42;;;282.83;;
76617;SDS011;65509;42.816;74.648;2022-12-11T08:51:06;570.15;;;285.40;;
76617;SDS011;65509;42.816;74.648;2022-12-11T08:53:32;563.05;;;280.13;;
76617;SDS011;65509;42.816;74.648;2022-12-11T08:56:05;541.53;;;270.92;;
76617;SDS011;65509;42.816;74.648;2022-12-11T08:58:31;527.90;;;254.63;;
76617;SDS011;65509;42.816;74.648;2022-12-11T09:00:58;500.70;;;247.13;;
76617;SDS011;65509;42.816;74.648;2022-12-11T09:03:24;536.40;;;261.35;;
76617;SDS011;65509;42.816;74.648;2022-12-11T09:05:49;493.42;;;236.18;;
76617;SDS011;65509;42.816;74.648;2022-12-11T09:08:21;521.47;;;251.57;;
76617;SDS011;65509;42.816;74.648;2022-12-11T09:10:46;498.83;;;236.10;;
76617;SDS011;65509;42.816;74.648;2022-12-11T09:13:12;533.60;;;265.40;;
76617;SDS011;65509;42.816;74.648;2022-12-11T09:15:41;519.35;;;257.60;;
76617;SDS011;65509;42.816;74.648;2022-12-11T09:18:06;511.40;;;250.98;;
76617;SDS011;65509;42.816;74.648;2022-12-11T09:20:32;535.05;;;259.10;;
76617;SDS011;65509;42.816;74.648;2022-12-11T09:22:58;512.40;;;249.70;;
76617;SDS011;65509;42.816;74.648;2022-12-11T09:25:23;584.58;;;288.00;;
76617;SDS011;65509;42.816;74.648;2022-12-11T09:27:49;579.35;;;288.02;;
76617;SDS011;65509;42.816;74.648;2022-12-11T09:30:14;570.67;;;283.20;;
76617;SDS011;65509;42.816;74.648;2022-12-11T09:32:40;548.10;;;264.77;;
76617;SDS011;65509;42.816;74.648;2022-12-11T09:35:06;546.95;;;269.52;;
76617;SDS011;65509;42.816;74.648;2022-12-11T09:37:32;540.55;;;260.63;;
76617;SDS011;65509;42.816;74.648;2022-12-11T09:39:57;566.08;;;269.52;;
76617;SDS011;65509;42.816;74.648;2022-12-11T09:43:13;528.13;;;253.55;;
76617;SDS011;65509;42.816;74.648;2022-12-11T09:45:09;530.65;;;249.23;;
76617;SDS011;65509;42.816;74.648;2022-12-11T09:47:39;525.53;;;239.05;;
76617;SDS011;65509;42.816;74.648;2022-12-11T09:52:37;503.23;;;231.75;;
76617;SDS011;65509;42.816;74.648;2022-12-11T09:55:23;510.95;;;230.70;;
76617;SDS011;65509;42.816;74.648;2022-12-11T09:57:52;485.80;;;218.23;;
76617;SDS011;65509;42.816;74.648;2022-12-11T10:00:32;500.20;;;224.48;;
76617;SDS011;65509;42.816;74.648;2022-12-11T10:05:54;452.40;;;196.52;;
76617;SDS011;65509;42.816;74.648;2022-12-11T10:16:07;480.70;;;210.57;;
76617;SDS011;65509;42.816;74.648;2022-12-11T10:18:40;431.80;;;180.43;;
76617;SDS011;65509;42.816;74.648;2022-12-11T10:21:06;434.60;;;177.98;;
76617;SDS011;65509;42.816;74.648;2022-12-11T10:23:43;422.20;;;170.23;;
76617;SDS011;65509;42.816;74.648;2022-12-11T10:26:11;428.33;;;175.07;;
76617;SDS011;65509;42.816;74.648;2022-12-11T10:28:40;385.40;;;156.77;;
76617;SDS011;65509;42.816;74.648;2022-12-11T10:35:59;441.77;;;188.10;;
76617;SDS011;65509;42.816;74.648;2022-12-11T10:38:29;439.42;;;181.00;;
76617;SDS011;65509;42.816;74.648;2022-12-11T10:43:30;480.25;;;208.23;;
76617;SDS011;65509;42.816;74.648;2022-12-11T10:45:56;452.73;;;193.20;;
76617;SDS011;65509;42.816;74.648;2022-12-11T10:48:22;446.13;;;186.73;;
76617;SDS011;65509;42.816;74.648;2022-12-11T10:51:00;472.38;;;194.77;;
76617;SDS011;65509;42.816;74.648;2022-12-11T10:53:27;445.08;;;181.85;;
76617;SDS011;65509;42.816;74.648;2022-12-11T10:55:53;450.80;;;191.93;;
76617;SDS011;65509;42.816;74.648;2022-12-11T10:58:20;427.70;;;170.38;;
76617;SDS011;65509;42.816;74.648;2022-12-11T11:00:45;432.55;;;177.55;;
76617;SDS011;65509;42.816;74.648;2022-12-11T11:03:22;386.73;;;155.70;;
76617;SDS011;65509;42.816;74.648;2022-12-11T11:05:47;423.90;;;173.13;;
76617;SDS011;65509;42.816;74.648;2022-12-11T11:08:18;384.80;;;151.50;;
76617;SDS011;65509;42.816;74.648;2022-12-11T11:10:49;354.92;;;141.70;;
76617;SDS011;65509;42.816;74.648;2022-12-11T11:13:14;358.90;;;141.98;;
76617;SDS011;65509;42.816;74.648;2022-12-11T11:15:40;412.50;;;161.65;;
76617;SDS011;65509;42.816;74.648;2022-12-11T11:18:09;413.67;;;164.73;;
76617;SDS011;65509;42.816;74.648;2022-12-11T11:20:35;352.38;;;133.40;;
76617;SDS011;65509;42.816;74.648;2022-12-11T11:23:02;346.45;;;135.68;;
76617;SDS011;65509;42.816;74.648;2022-12-11T11:25:29;324.73;;;127.30;;
76617;SDS011;65509;42.816;74.648;2022-12-11T11:27:56;361.33;;;147.98;;
76617;SDS011;65509;42.816;74.648;2022-12-11T11:30:23;349.20;;;135.40;;
76617;SDS011;65509;42.816;74.648;2022-12-11T11:32:49;393.20;;;155.57;;
76617;SDS011;65509;42.816;74.648;2022-12-11T11:35:17;426.48;;;171.30;;
76617;SDS011;65509;42.816;74.648;2022-12-11T11:37:52;393.70;;;154.73;;
76617;SDS011;65509;42.816;74.648;2022-12-11T11:40:27;352.60;;;137.48;;
76617;SDS011;65509;42.816;74.648;2022-12-11T11:45:20;419.70;;;151.95;;
76617;SDS011;65509;42.816;74.648;2022-12-11T11:47:53;392.95;;;142.25;;
76617;SDS011;65509;42.816;74.648;2022-12-11T11:50:26;363.30;;;136.10;;
76617;SDS011;65509;42.816;74.648;2022-12-11T11:53:01;354.27;;;130.30;;
76617;SDS011;65509;42.816;74.648;2022-12-11T11:55:42;338.00;;;125.45;;
76617;SDS011;65509;42.816;74.648;2022-12-11T11:58:14;330.52;;;122.78;;
76617;SDS011;65509;42.816;74.648;2022-12-11T12:00:41;344.35;;;129.80;;
76617;SDS011;65509;42.816;74.648;2022-12-11T12:08:52;310.48;;;118.25;;
76617;SDS011;65509;42.816;74.648;2022-12-11T12:11:55;363.80;;;141.13;;
76617;SDS011;65509;42.816;74.648;2022-12-11T12:21:40;290.92;;;112.25;;
76617;SDS011;65509;42.816;74.648;2022-12-11T12:26:48;338.50;;;124.85;;
76617;SDS011;65509;42.816;74.648;2022-12-11T12:42:41;643.92;;;263.00;;
76617;SDS011;65509;42.816;74.648;2022-12-11T12:47:37;641.03;;;260.70;;
76617;SDS011;65509;42.816;74.648;2022-12-11T12:50:03;638.70;;;255.60;;
76617;SDS011;65509;42.816;74.648;2022-12-11T12:52:33;833.70;;;336.13;;
76617;SDS011;65509;42.816;74.648;2022-12-11T12:55:00;780.35;;;334.05;;
76617;SDS011;65509;42.816;74.648;2022-12-11T12:57:47;738.80;;;311.48;;
76617;SDS011;65509;42.816;74.648;2022-12-11T13:00:24;696.22;;;310.50;;
76617;SDS011;65509;42.816;74.648;2022-12-11T13:02:50;682.83;;;310.15;;
76617;SDS011;65509;42.816;74.648;2022-12-11T13:05:27;637.38;;;291.58;;
76617;SDS011;65509;42.816;74.648;2022-12-11T13:07:58;602.13;;;267.45;;
76617;SDS011;65509;42.816;74.648;2022-12-11T13:12:50;621.20;;;282.73;;
76617;SDS011;65509;42.816;74.648;2022-12-11T13:15:26;631.13;;;289.65;;
76617;SDS011;65509;42.816;74.648;2022-12-11T13:17:52;550.80;;;250.18;;
76617;SDS011;65509;42.816;74.648;2022-12-11T13:20:19;540.53;;;238.10;;
76617;SDS011;65509;42.816;74.648;2022-12-11T13:25:19;536.35;;;243.27;;
76617;SDS011;65509;42.816;74.648;2022-12-11T13:27:45;541.47;;;230.70;;
76617;SDS011;65509;42.816;74.648;2022-12-11T13:32:42;506.00;;;214.77;;
76617;SDS011;65509;42.816;74.648;2022-12-11T13:35:14;486.50;;;199.80;;
76617;SDS011;65509;42.816;74.648;2022-12-11T13:37:41;452.60;;;177.95;;
76617;SDS011;65509;42.816;74.648;2022-12-11T13:40:13;446.38;;;170.65;;
76617;SDS011;65509;42.816;74.648;2022-12-11T13:43:00;394.65;;;155.38;;
76617;SDS011;65509;42.816;74.648;2022-12-11T13:47:56;486.80;;;204.65;;
76617;SDS011;65509;42.816;74.648;2022-12-11T13:50:32;497.67;;;208.73;;
76617;SDS011;65509;42.816;74.648;2022-12-11T13:52:59;413.20;;;161.25;;
76617;SDS011;65509;42.816;74.648;2022-12-11T13:55:29;398.23;;;155.63;;
76617;SDS011;65509;42.816;74.648;2022-12-11T13:57:55;384.90;;;147.68;;
76617;SDS011;65509;42.816;74.648;2022-12-11T14:00:22;407.67;;;158.43;;
76617;SDS011;65509;42.816;74.648;2022-12-11T14:02:50;357.80;;;135.30;;
76617;SDS011;65509;42.816;74.648;2022-12-11T14:05:16;329.27;;;124.00;;
76617;SDS011;65509;42.816;74.648;2022-12-11T14:07:50;326.10;;;118.85;;
76617;SDS011;65509;42.816;74.648;2022-12-11T14:15:21;302.02;;;113.82;;
76617;SDS011;65509;42.816;74.648;2022-12-11T14:17:47;325.40;;;120.00;;
76617;SDS011;65509;42.816;74.648;2022-12-11T14:20:17;336.70;;;129.35;;
76617;SDS011;65509;42.816;74.648;2022-12-11T14:22:43;336.13;;;124.13;;
76617;SDS011;65509;42.816;74.648;2022-12-11T14:25:17;296.67;;;108.45;;
76617;SDS011;65509;42.816;74.648;2022-12-11T14:27:50;257.08;;;96.55;;
76617;SDS011;65509;42.816;74.648;2022-12-11T14:30:34;312.33;;;118.75;;
76617;SDS011;65509;42.816;74.648;2022-12-11T14:33:01;315.85;;;113.78;;
76617;SDS011;65509;42.816;74.648;2022-12-11T14:35:30;414.75;;;140.68;;
76617;SDS011;65509;42.816;74.648;2022-12-11T14:37:57;365.23;;;122.40;;
76617;SDS011;65509;42.816;74.648;2022-12-11T14:40:25;301.60;;;103.95;;
76617;SDS011;65509;42.816;74.648;2022-12-11T14:42:57;303.58;;;104.78;;
76617;SDS011;65509;42.816;74.648;2022-12-11T14:45:30;297.48;;;108.07;;
76617;SDS011;65509;42.816;74.648;2022-12-11T14:47:57;281.85;;;105.90;;
76617;SDS011;65509;42.816;74.648;2022-12-11T14:50:32;316.23;;;106.60;;
76617;SDS011;65509;42.816;74.648;2022-12-11T14:53:11;300.55;;;99.82;;
76617;SDS011;65509;42.816;74.648;2022-12-11T14:55:37;289.42;;;105.78;;
76617;SDS011;65509;42.816;74.648;2022-12-11T14:58:05;284.13;;;106.63;;
76617;SDS011;65509;42.816;74.648;2022-12-11T15:00:32;330.25;;;117.03;;
76617;SDS011;65509;42.816;74.648;2022-12-11T15:03:01;260.77;;;104.10;;
76617;SDS011;65509;42.816;74.648;2022-12-11T15:05:27;230.05;;;85.95;;
76617;SDS011;65509;42.816;74.648;2022-12-11T15:07:53;231.70;;;86.80;;
76617;SDS011;65509;42.816;74.648;2022-12-11T15:10:23;266.30;;;95.07;;
76617;SDS011;65509;42.816;74.648;2022-12-11T15:12:49;271.75;;;97.18;;
76617;SDS011;65509;42.816;74.648;2022-12-11T15:15:15;289.23;;;96.55;;
76617;SDS011;65509;42.816;74.648;2022-12-11T15:17:41;280.35;;;92.85;;
76617;SDS011;65509;42.816;74.648;2022-12-11T15:20:07;249.25;;;85.43;;
76617;SDS011;65509;42.816;74.648;2022-12-11T15:22:34;260.63;;;86.82;;
76617;SDS011;65509;42.816;74.648;2022-12-11T15:24:59;211.93;;;78.43;;